Time;durP1;ratioP1;P1;durP2;ratioP2;P2;SDS_P1;SDS_P2;PMS_P1;PMS_P2;Temp;Humidity;BMP_temperature;BMP_pressure;BME280_temperature;BME280_humidity;BME280_pressure;Samples;Min_cycle;Max_cycle;Signal;HPM_P1;HPM_P2
2023/07/15 00:00:53;;;;;;;18.40;13.15;;;;;;;;;;5053414;28;20110;-61
2023/07/15 00:03:19;;;;;;;21.55;15.00;;;;;;;;;;5072759;28;20410;-59
2023/07/15 00:05:46;;;;;;;20.33;15.45;;;;;;;;;;5072248;28;20091;-56
2023/07/15 00:08:12;;;;;;;24.23;18.25;;;;;;;;;;5048725;22;1087051;-55
2023/07/15 00:10:39;;;;;;;22.88;17.02;;;;;;;;;;5071446;28;20435;-55
2023/07/15 00:13:06;;;;;;;20.52;13.60;;;;;;;;;;5071387;28;20086;-55
2023/07/15 00:15:32;;;;;;;20.10;13.30;;;;;;;;;;5070529;28;20027;-56
2023/07/15 00:17:58;;;;;;;19.92;11.98;;;;;;;;;;5053321;28;20028;-57
2023/07/15 00:20:24;;;;;;;17.83;11.85;;;;;;;;;;5071283;28;20032;-56
2023/07/15 00:22:50;;;;;;;21.00;11.35;;;;;;;;;;5053398;28;20036;-55
2023/07/15 00:25:19;;;;;;;19.05;13.38;;;;;;;;;;5073300;28;20485;-53
2023/07/15 00:27:46;;;;;;;17.73;12.45;;;;;;;;;;5074984;28;20024;-53
2023/07/15 00:30:13;;;;;;;20.17;13.20;;;;;;;;;;5057187;28;20020;-57
2023/07/15 00:32:40;;;;;;;20.92;13.32;;;;;;;;;;5075164;28;20013;-53
2023/07/15 00:35:18;;;;;;;18.23;11.77;;;;;;;;;;5074493;28;20036;-52
2023/07/15 00:37:44;;;;;;;17.65;11.55;;;;;;;;;;5075258;28;20025;-52
2023/07/15 00:40:11;;;;;;;20.50;12.82;;;;;;;;;;5074882;28;20043;-56
2023/07/15 00:42:56;;;;;;;17.73;11.32;;;;;;;;;;5056737;28;20020;-55
2023/07/15 00:45:21;;;;;;;18.23;11.75;;;;;;;;;;5055953;28;20439;-57
2023/07/15 00:48:08;;;;;;;17.98;11.45;;;;;;;;;;5074511;28;20078;-55
2023/07/15 00:50:34;;;;;;;17.10;11.30;;;;;;;;;;5074417;28;20036;-56
2023/07/15 00:53:00;;;;;;;17.15;11.65;;;;;;;;;;5074667;28;20021;-57
2023/07/15 00:55:27;;;;;;;16.92;11.00;;;;;;;;;;5073807;28;20034;-57
2023/07/15 00:57:53;;;;;;;16.10;10.97;;;;;;;;;;5074681;28;20117;-55
2023/07/15 01:00:19;;;;;;;22.20;11.23;;;;;;;;;;5074494;28;20109;-53
2023/07/15 01:02:46;;;;;;;18.30;10.85;;;;;;;;;;5074555;28;20060;-55
2023/07/15 01:05:12;;;;;;;18.67;10.65;;;;;;;;;;5055724;28;20024;-54
2023/07/15 01:07:38;;;;;;;17.95;10.77;;;;;;;;;;5074130;28;20036;-56
2023/07/15 01:10:04;;;;;;;16.67;10.88;;;;;;;;;;5074306;28;20099;-56
2023/07/15 01:12:30;;;;;;;18.58;11.15;;;;;;;;;;5074290;28;20085;-56
2023/07/15 01:14:56;;;;;;;18.52;10.48;;;;;;;;;;5073530;28;20528;-50
2023/07/15 01:17:22;;;;;;;17.52;11.00;;;;;;;;;;5074091;28;20033;-57
2023/07/15 01:19:49;;;;;;;20.27;13.73;;;;;;;;;;5074199;28;20024;-56
2023/07/15 01:22:15;;;;;;;16.97;10.50;;;;;;;;;;5056258;28;20032;-56
2023/07/15 01:24:41;;;;;;;18.23;11.55;;;;;;;;;;5073296;28;20161;-53
2023/07/15 01:27:08;;;;;;;17.55;10.90;;;;;;;;;;5074013;28;20086;-53
2023/07/15 01:29:34;;;;;;;18.10;11.40;;;;;;;;;;5074046;28;20024;-56
2023/07/15 01:32:00;;;;;;;18.10;11.90;;;;;;;;;;5073906;28;20074;-58
2023/07/15 01:34:26;;;;;;;18.00;11.57;;;;;;;;;;5055253;28;20028;-57
2023/07/15 01:36:52;;;;;;;19.10;11.20;;;;;;;;;;5073755;28;20035;-57
2023/07/15 01:39:18;;;;;;;15.93;10.45;;;;;;;;;;5074566;28;20024;-57
2023/07/15 01:41:44;;;;;;;16.23;11.15;;;;;;;;;;5056364;28;20097;-55
2023/07/15 01:44:11;;;;;;;16.73;10.65;;;;;;;;;;5054490;28;20077;-55
2023/07/15 01:46:39;;;;;;;17.92;11.90;;;;;;;;;;5073328;28;20541;-54
2023/07/15 01:49:05;;;;;;;;;;;;;;;;;;5073842;28;20025;-54
2023/07/15 01:51:31;;;;;;;16.45;11.05;;;;;;;;;;5073460;28;19911;-56
2023/07/15 01:53:58;;;;;;;16.67;11.10;;;;;;;;;;5072927;28;20047;-57
2023/07/15 01:56:24;;;;;;;18.63;11.80;;;;;;;;;;5073049;28;20184;-54
2023/07/15 01:58:50;;;;;;;15.82;10.65;;;;;;;;;;5073398;28;20024;-54
2023/07/15 02:01:16;;;;;;;17.73;11.00;;;;;;;;;;5073469;28;20101;-55
2023/07/15 02:03:42;;;;;;;15.80;10.70;;;;;;;;;;5073401;28;20067;-52
2023/07/15 02:06:08;;;;;;;15.50;10.93;;;;;;;;;;5054450;28;20032;-53
2023/07/15 02:08:34;;;;;;;18.70;10.65;;;;;;;;;;5073045;28;20035;-56
2023/07/15 02:11:00;;;;;;;16.13;10.63;;;;;;;;;;5073151;28;20475;-60
2023/07/15 02:13:26;;;;;;;17.35;10.82;;;;;;;;;;5073113;28;20079;-57
2023/07/15 02:15:52;;;;;;;18.42;10.70;;;;;;;;;;5072194;28;20401;-53
2023/07/15 02:18:18;;;;;;;15.70;10.95;;;;;;;;;;5072650;28;20131;-56
2023/07/15 02:20:46;;;;;;;16.73;11.65;;;;;;;;;;5072911;28;20047;-52
2023/07/15 02:23:12;;;;;;;16.83;10.33;;;;;;;;;;5072828;28;20554;-55
2023/07/15 02:25:38;;;;;;;17.42;10.90;;;;;;;;;;5054029;28;20059;-56
2023/07/15 02:28:04;;;;;;;15.93;10.60;;;;;;;;;;5072709;28;20025;-53
2023/07/15 02:30:30;;;;;;;15.95;10.30;;;;;;;;;;5072734;28;20028;-55
2023/07/15 02:32:57;;;;;;;16.95;10.63;;;;;;;;;;5072617;28;20029;-55
2023/07/15 02:35:23;;;;;;;16.02;10.68;;;;;;;;;;5071783;28;20032;-55
2023/07/15 02:37:49;;;;;;;16.63;10.40;;;;;;;;;;5054691;28;20025;-56
2023/07/15 02:40:17;;;;;;;18.73;10.77;;;;;;;;;;5072434;28;20037;-55
2023/07/15 02:42:43;;;;;;;16.33;10.18;;;;;;;;;;5072533;28;20031;-55
2023/07/15 02:45:09;;;;;;;16.10;10.55;;;;;;;;;;5071733;28;20032;-56
2023/07/15 02:47:36;;;;;;;17.45;10.77;;;;;;;;;;5072056;28;20078;-56
2023/07/15 02:50:04;;;;;;;17.83;10.90;;;;;;;;;;5072930;28;20100;-58
2023/07/15 02:52:31;;;;;;;17.83;10.60;;;;;;;;;;5072780;28;20074;-53
2023/07/15 02:54:56;;;;;;;16.45;10.25;;;;;;;;;;5072344;28;20054;-57
2023/07/15 02:57:23;;;;;;;16.75;10.55;;;;;;;;;;5073222;28;20119;-55
2023/07/15 02:59:49;;;;;;;15.88;10.43;;;;;;;;;;5073323;28;20021;-56
2023/07/15 03:02:15;;;;;;;20.27;11.20;;;;;;;;;;5072774;28;20125;-56
2023/07/15 03:04:41;;;;;;;20.05;11.13;;;;;;;;;;5072155;28;20036;-58
2023/07/15 03:07:13;;;;;;;16.75;10.45;;;;;;;;;;5072754;28;20571;-52
2023/07/15 03:09:39;;;;;;;16.58;10.95;;;;;;;;;;5072790;28;20028;-56
2023/07/15 03:12:05;;;;;;;17.15;11.18;;;;;;;;;;5072065;28;20107;-54
2023/07/15 03:14:31;;;;;;;15.63;10.32;;;;;;;;;;5071227;28;20103;-57
2023/07/15 03:16:57;;;;;;;16.38;11.10;;;;;;;;;;5072232;28;20530;-54
2023/07/15 03:19:23;;;;;;;17.10;11.20;;;;;;;;;;5072153;28;20032;-57
2023/07/15 03:21:49;;;;;;;17.88;11.20;;;;;;;;;;5071911;28;20028;-54
2023/07/15 03:24:15;;;;;;;15.52;10.57;;;;;;;;;;5071331;28;20039;-56
2023/07/15 03:26:41;;;;;;;16.33;11.05;;;;;;;;;;5072036;28;20031;-61
2023/07/15 03:29:08;;;;;;;16.05;10.65;;;;;;;;;;5071777;28;20024;-56
2023/07/15 03:31:34;;;;;;;16.67;11.18;;;;;;;;;;5054140;28;20481;-57
2023/07/15 03:34:01;;;;;;;16.88;10.93;;;;;;;;;;5071414;28;20032;-57
2023/07/15 03:36:27;;;;;;;16.60;10.90;;;;;;;;;;5071616;28;20031;-59
2023/07/15 03:38:53;;;;;;;17.98;10.80;;;;;;;;;;5071559;28;20104;-56
2023/07/15 03:41:19;;;;;;;18.23;10.30;;;;;;;;;;5071021;28;20024;-53
2023/07/15 03:43:45;;;;;;;16.60;10.50;;;;;;;;;;5070885;28;20562;-56
2023/07/15 03:46:12;;;;;;;16.20;10.75;;;;;;;;;;5069467;28;20055;-55
2023/07/15 03:48:38;;;;;;;15.77;10.55;;;;;;;;;;5056096;28;20024;-58
2023/07/15 03:51:06;;;;;;;17.33;10.98;;;;;;;;;;5032640;28;20029;-53
2023/07/15 03:53:32;;;;;;;16.00;11.07;;;;;;;;;;5032816;28;20023;-56
2023/07/15 03:55:58;;;;;;;16.90;11.25;;;;;;;;;;5050024;28;20100;-58
2023/07/15 03:58:24;;;;;;;16.40;11.18;;;;;;;;;;5050710;28;20112;-56
2023/07/15 04:00:50;;;;;;;17.55;11.85;;;;;;;;;;5054738;28;20029;-57
2023/07/15 04:03:16;;;;;;;17.55;11.25;;;;;;;;;;5054846;28;20382;-57
2023/07/15 04:05:42;;;;;;;17.40;10.80;;;;;;;;;;5054062;28;20075;-58
2023/07/15 04:08:08;;;;;;;15.90;10.88;;;;;;;;;;5054705;28;20037;-54
2023/07/15 04:10:34;;;;;;;15.73;10.98;;;;;;;;;;5054804;28;20662;-55
2023/07/15 04:13:00;;;;;;;16.15;11.13;;;;;;;;;;5054796;28;20017;-53
2023/07/15 04:15:26;;;;;;;16.60;11.23;;;;;;;;;;5053956;28;20024;-57
2023/07/15 04:17:52;;;;;;;17.05;11.73;;;;;;;;;;5055037;28;20021;-53
2023/07/15 04:20:18;;;;;;;16.58;11.32;;;;;;;;;;5053503;28;20591;-55
2023/07/15 04:22:44;;;;;;;18.92;11.00;;;;;;;;;;5053561;28;20017;-56
2023/07/15 04:25:11;;;;;;;15.32;11.05;;;;;;;;;;5052585;28;20059;-56
2023/07/15 04:27:41;;;;;;;17.35;11.55;;;;;;;;;;5053173;28;20017;-54
2023/07/15 04:30:07;;;;;;;16.25;11.57;;;;;;;;;;5053649;28;20504;-54
2023/07/15 04:32:33;;;;;;;18.95;11.63;;;;;;;;;;5054797;28;20025;-54
2023/07/15 04:35:01;;;;;;;17.02;11.50;;;;;;;;;;5054546;28;20028;-56
2023/07/15 04:37:27;;;;;;;;;;;;;;;;;;5056027;28;20615;-54
2023/07/15 04:39:53;;;;;;;17.45;12.35;;;;;;;;;;5038061;28;19967;-57
2023/07/15 04:42:19;;;;;;;16.90;12.15;;;;;;;;;;5055741;28;20124;-57
2023/07/15 04:44:45;;;;;;;17.48;11.65;;;;;;;;;;5054716;28;20481;-54
2023/07/15 04:47:12;;;;;;;16.88;11.13;;;;;;;;;;5036973;28;20023;-53
2023/07/15 04:49:38;;;;;;;17.00;11.70;;;;;;;;;;5036835;28;20053;-53
2023/07/15 04:52:04;;;;;;;17.13;11.70;;;;;;;;;;5054818;28;20029;-54
2023/07/15 04:54:30;;;;;;;17.00;11.20;;;;;;;;;;5053722;28;20051;-59
2023/07/15 04:56:56;;;;;;;15.45;10.82;;;;;;;;;;5054479;28;20029;-57
2023/07/15 04:59:22;;;;;;;16.50;11.20;;;;;;;;;;5054564;28;20021;-57
2023/07/15 05:01:48;;;;;;;16.90;11.43;;;;;;;;;;5054439;28;20033;-56
2023/07/15 05:04:14;;;;;;;17.98;11.30;;;;;;;;;;5053332;28;20441;-56
2023/07/15 05:06:40;;;;;;;16.05;11.20;;;;;;;;;;5054287;28;20057;-58
2023/07/15 05:09:07;;;;;;;16.25;11.40;;;;;;;;;;5053998;28;20078;-55
2023/07/15 05:11:33;;;;;;;17.92;11.60;;;;;;;;;;5053798;28;20021;-57
2023/07/15 05:13:59;;;;;;;17.27;11.70;;;;;;;;;;5053345;28;20068;-54
2023/07/15 05:16:25;;;;;;;16.85;11.77;;;;;;;;;;5053926;28;20159;-59
2023/07/15 05:18:51;;;;;;;15.82;11.00;;;;;;;;;;5053935;28;20090;-59
2023/07/15 05:21:17;;;;;;;16.52;11.48;;;;;;;;;;5054068;28;20044;-57
2023/07/15 05:23:43;;;;;;;16.00;11.73;;;;;;;;;;5054295;28;20461;-58
2023/07/15 05:26:09;;;;;;;17.08;11.40;;;;;;;;;;5053413;28;20074;-56
2023/07/15 05:28:35;;;;;;;18.77;11.30;;;;;;;;;;5054091;28;20040;-55
2023/07/15 05:31:01;;;;;;;16.67;11.25;;;;;;;;;;5054168;28;20021;-58
2023/07/15 05:33:28;;;;;;;15.90;11.23;;;;;;;;;;5054198;28;20500;-56
2023/07/15 05:35:54;;;;;;;17.10;12.68;;;;;;;;;;5057524;28;20497;-56
2023/07/15 05:38:24;;;;;;;16.95;11.60;;;;;;;;;;5055659;28;20435;-55
2023/07/15 05:40:50;;;;;;;17.88;11.68;;;;;;;;;;5073787;28;20111;-58
2023/07/15 05:43:16;;;;;;;17.38;11.60;;;;;;;;;;5073465;28;20024;-56
2023/07/15 05:45:42;;;;;;;16.05;11.75;;;;;;;;;;5072531;28;20032;-57
2023/07/15 05:48:08;;;;;;;16.92;11.90;;;;;;;;;;5073519;28;20428;-58
2023/07/15 05:50:37;;;;;;;15.77;11.60;;;;;;;;;;5073281;28;20035;-57
2023/07/15 05:53:06;;;;;;;17.25;11.80;;;;;;;;;;5073293;28;20017;-57
2023/07/15 05:55:33;;;;;;;16.73;11.77;;;;;;;;;;5071325;28;20025;-56
2023/07/15 05:58:00;;;;;;;17.58;11.68;;;;;;;;;;5072517;28;20115;-56
2023/07/15 06:00:26;;;;;;;15.18;11.10;;;;;;;;;;5073096;28;20020;-56
2023/07/15 06:02:52;;;;;;;17.60;11.75;;;;;;;;;;5072970;28;20073;-58
2023/07/15 06:05:18;;;;;;;16.45;11.43;;;;;;;;;;5072065;28;20032;-57
2023/07/15 06:07:44;;;;;;;17.55;12.27;;;;;;;;;;5073782;28;20031;-57
2023/07/15 06:10:10;;;;;;;21.50;12.20;;;;;;;;;;5071096;28;20036;-55
2023/07/15 06:12:36;;;;;;;15.82;11.57;;;;;;;;;;5054936;28;20392;-54
2023/07/15 06:15:02;;;;;;;16.92;12.10;;;;;;;;;;5054271;28;20025;-55
2023/07/15 06:17:28;;;;;;;16.83;11.85;;;;;;;;;;5072961;28;20024;-56
2023/07/15 06:19:54;;;;;;;16.60;12.13;;;;;;;;;;5072761;28;20491;-54
2023/07/15 06:22:20;;;;;;;15.90;11.85;;;;;;;;;;5072109;28;20035;-57
2023/07/15 06:24:46;;;;;;;16.55;12.40;;;;;;;;;;5072013;28;20030;-56
2023/07/15 06:27:12;;;;;;;18.80;12.10;;;;;;;;;;5072589;28;20095;-58
2023/07/15 06:29:38;;;;;;;16.10;12.00;;;;;;;;;;5072574;28;20056;-55
2023/07/15 06:32:04;;;;;;;17.13;11.63;;;;;;;;;;5072773;28;20073;-56
2023/07/15 06:34:31;;;;;;;16.50;12.10;;;;;;;;;;5071688;28;20021;-58
2023/07/15 06:36:57;;;;;;;17.88;11.93;;;;;;;;;;5072469;28;20025;-57
2023/07/15 06:39:23;;;;;;;16.63;11.90;;;;;;;;;;5072529;28;20090;-57
2023/07/15 06:41:52;;;;;;;16.20;12.27;;;;;;;;;;5072699;28;20115;-53
2023/07/15 06:44:18;;;;;;;16.17;11.25;;;;;;;;;;5071653;28;20463;-53
2023/07/15 06:46:44;;;;;;;16.95;11.38;;;;;;;;;;5072608;28;20031;-57
2023/07/15 06:49:10;;;;;;;19.08;11.40;;;;;;;;;;5072165;28;20463;-55
2023/07/15 06:51:36;;;;;;;15.93;11.38;;;;;;;;;;5072038;28;20119;-55
2023/07/15 06:54:03;;;;;;;16.55;11.30;;;;;;;;;;5071631;28;20492;-56
2023/07/15 06:56:29;;;;;;;16.23;11.63;;;;;;;;;;5071867;28;20426;-56
2023/07/15 06:58:55;;;;;;;20.13;11.77;;;;;;;;;;5072089;28;20052;-58
2023/07/15 07:01:21;;;;;;;15.55;11.48;;;;;;;;;;5072119;28;20099;-58
2023/07/15 07:03:47;;;;;;;16.00;11.48;;;;;;;;;;5072377;28;20129;-57
2023/07/15 07:06:13;;;;;;;15.98;11.60;;;;;;;;;;5071119;28;20138;-58
2023/07/15 07:08:39;;;;;;;16.23;11.65;;;;;;;;;;5071754;28;20025;-56
2023/07/15 07:11:05;;;;;;;18.10;12.20;;;;;;;;;;5050529;28;20119;-58
2023/07/15 07:13:31;;;;;;;16.98;11.50;;;;;;;;;;5071620;28;20548;-59
2023/07/15 07:15:58;;;;;;;16.83;11.70;;;;;;;;;;5053001;28;20028;-59
2023/07/15 07:18:24;;;;;;;16.10;11.98;;;;;;;;;;5071558;28;20032;-59
2023/07/15 07:20:55;;;;;;;18.10;12.55;;;;;;;;;;5071759;28;20064;-56
2023/07/15 07:23:21;;;;;;;16.75;12.15;;;;;;;;;;5061290;28;20033;-57
2023/07/15 07:25:47;;;;;;;16.35;11.90;;;;;;;;;;5069720;28;20047;-62
2023/07/15 07:28:13;;;;;;;16.35;11.88;;;;;;;;;;5069885;28;20044;-61
2023/07/15 07:30:40;;;;;;;15.65;11.63;;;;;;;;;;5071276;28;20029;-60
2023/07/15 07:33:06;;;;;;;17.67;11.60;;;;;;;;;;5071318;28;20503;-60
2023/07/15 07:35:32;;;;;;;17.42;12.18;;;;;;;;;;5070814;28;20029;-57
2023/07/15 07:37:58;;;;;;;16.23;11.90;;;;;;;;;;5069988;28;20032;-61
2023/07/15 07:40:24;;;;;;;17.73;11.95;;;;;;;;;;5053229;28;20443;-59
2023/07/15 07:42:50;;;;;;;16.55;13.07;;;;;;;;;;5063148;28;20077;-56
2023/07/15 07:45:17;;;;;;;16.20;12.38;;;;;;;;;;5070510;28;20501;-58
2023/07/15 07:47:43;;;;;;;16.10;12.20;;;;;;;;;;5071301;28;20108;-59
2023/07/15 07:50:09;;;;;;;16.63;12.35;;;;;;;;;;5071313;28;20092;-59
2023/07/15 07:52:35;;;;;;;17.92;12.38;;;;;;;;;;5058874;28;20049;-56
2023/07/15 07:55:03;;;;;;;17.23;12.10;;;;;;;;;;5070616;28;20099;-57
2023/07/15 07:57:29;;;;;;;18.83;11.65;;;;;;;;;;5071281;28;20035;-61
2023/07/15 07:59:55;;;;;;;16.63;11.68;;;;;;;;;;5071449;28;20024;-59
2023/07/15 08:02:21;;;;;;;17.02;11.73;;;;;;;;;;5069890;28;20032;-58
2023/07/15 08:04:50;;;;;;;17.17;11.80;;;;;;;;;;5057069;28;20111;-57
2023/07/15 08:07:16;;;;;;;16.52;12.10;;;;;;;;;;5070883;28;20108;-61
2023/07/15 08:09:42;;;;;;;16.42;12.10;;;;;;;;;;5071087;28;20158;-59
2023/07/15 08:12:11;;;;;;;18.30;12.07;;;;;;;;;;5069423;28;20032;-62
2023/07/15 08:14:37;;;;;;;16.95;12.10;;;;;;;;;;5068575;28;20013;-62
2023/07/15 08:17:03;;;;;;;16.88;12.20;;;;;;;;;;5070910;28;20388;-59
2023/07/15 08:19:29;;;;;;;16.13;12.30;;;;;;;;;;5070427;28;20055;-61
2023/07/15 08:21:55;;;;;;;17.98;12.73;;;;;;;;;;5052737;28;20056;-58
2023/07/15 08:24:21;;;;;;;16.40;11.88;;;;;;;;;;5051846;28;20104;-61
2023/07/15 08:26:47;;;;;;;16.40;11.57;;;;;;;;;;5048922;28;20492;-62
2023/07/15 08:29:13;;;;;;;16.00;11.68;;;;;;;;;;5030158;28;20032;-60
2023/07/15 08:31:39;;;;;;;17.30;12.25;;;;;;;;;;5050031;28;20029;-61
2023/07/15 08:34:05;;;;;;;16.83;11.57;;;;;;;;;;5049927;28;20025;-62
2023/07/15 08:36:31;;;;;;;18.73;11.63;;;;;;;;;;5050410;28;20043;-61
2023/07/15 08:38:57;;;;;;;16.60;12.50;;;;;;;;;;5049971;28;20080;-60
2023/07/15 08:41:27;;;;;;;16.08;11.48;;;;;;;;;;5049468;28;20437;-58
2023/07/15 08:43:53;;;;;;;17.83;11.95;;;;;;;;;;5049154;28;20095;-57
2023/07/15 08:46:30;;;;;;;17.25;12.02;;;;;;;;;;5053375;28;20134;-60
2023/07/15 08:48:56;;;;;;;15.35;11.60;;;;;;;;;;5054574;28;20028;-61
2023/07/15 08:51:25;;;;;;;18.25;12.63;;;;;;;;;;5054299;28;20428;-60
2023/07/15 08:53:51;;;;;;;15.68;11.73;;;;;;;;;;5054378;28;20028;-59
2023/07/15 08:56:17;;;;;;;17.60;12.07;;;;;;;;;;5053942;28;20098;-60
2023/07/15 08:58:44;;;;;;;17.10;12.07;;;;;;;;;;5054270;28;20117;-59
2023/07/15 09:01:10;;;;;;;15.85;11.98;;;;;;;;;;5054521;28;20550;-61
2023/07/15 09:03:36;;;;;;;16.13;11.70;;;;;;;;;;5052576;28;20151;-62
2023/07/15 09:06:02;;;;;;;16.30;11.30;;;;;;;;;;5035633;28;20128;-60
2023/07/15 09:08:28;;;;;;;17.85;11.60;;;;;;;;;;5054218;28;20056;-65
2023/07/15 09:10:56;;;;;;;17.38;11.45;;;;;;;;;;5054053;28;20433;-60
2023/07/15 09:13:25;;;;;;;16.98;11.90;;;;;;;;;;5035641;28;20013;-61
2023/07/15 09:15:55;;;;;;;18.25;11.32;;;;;;;;;;5052956;28;20032;-63
2023/07/15 09:18:21;;;;;;;16.50;10.93;;;;;;;;;;5035768;28;20201;-62
2023/07/15 09:20:47;;;;;;;16.75;11.02;;;;;;;;;;5053650;28;20067;-58
2023/07/15 09:23:14;;;;;;;15.55;11.00;;;;;;;;;;5053678;28;20078;-59
2023/07/15 09:25:49;;;;;;;15.57;10.98;;;;;;;;;;5034702;28;20120;-59
2023/07/15 09:28:15;;;;;;;16.40;11.50;;;;;;;;;;5053390;28;20123;-59
2023/07/15 09:30:41;;;;;;;16.73;11.77;;;;;;;;;;5035506;28;20119;-59
2023/07/15 09:33:07;;;;;;;16.02;12.07;;;;;;;;;;5053222;28;20096;-58
2023/07/15 09:35:37;;;;;;;17.13;11.98;;;;;;;;;;5052492;28;20112;-57
2023/07/15 09:38:03;;;;;;;18.33;11.68;;;;;;;;;;5053331;28;20021;-57
2023/07/15 09:40:41;;;;;;;16.02;11.57;;;;;;;;;;5061909;28;20043;-59
2023/07/15 09:43:07;;;;;;;;;;;;;;;;;;5073636;28;20031;-59
2023/07/15 09:45:33;;;;;;;16.50;12.10;;;;;;;;;;5072524;28;20334;-58
2023/07/15 09:48:00;;;;;;;15.98;11.65;;;;;;;;;;4716617;28;9999913;-60
2023/07/15 09:50:26;;;;;;;18.25;11.50;;;;;;;;;;5042982;28;20025;-60
2023/07/15 09:52:54;;;;;;;16.60;10.90;;;;;;;;;;5056603;28;20033;-60
2023/07/15 09:55:22;;;;;;;16.27;11.23;;;;;;;;;;5049868;28;20486;-59
2023/07/15 09:57:50;;;;;;;16.08;11.50;;;;;;;;;;5049595;28;20032;-57
2023/07/15 10:00:18;;;;;;;15.75;11.40;;;;;;;;;;5051018;28;20762;-58
2023/07/15 10:02:45;;;;;;;15.68;11.70;;;;;;;;;;5038283;28;20029;-52
2023/07/15 10:05:13;;;;;;;18.50;12.10;;;;;;;;;;5067908;28;20025;-51
2023/07/15 10:07:42;;;;;;;20.33;12.57;;;;;;;;;;5068631;28;20123;-53
2023/07/15 10:10:09;;;;;;;16.95;11.40;;;;;;;;;;5051108;28;20025;-54
2023/07/15 10:12:36;;;;;;;18.27;11.70;;;;;;;;;;5068720;28;20039;-50
2023/07/15 10:15:02;;;;;;;17.23;11.63;;;;;;;;;;5068301;28;20024;-52
2023/07/15 10:17:36;;;;;;;15.40;11.05;;;;;;;;;;5069311;28;20047;-50
2023/07/15 10:20:03;;;;;;;16.02;10.30;;;;;;;;;;5068946;28;20035;-50
2023/07/15 10:22:34;;;;;;;17.50;10.30;;;;;;;;;;5068329;28;20029;-52
2023/07/15 10:25:02;;;;;;;19.75;9.88;;;;;;;;;;5067724;28;20021;-58
2023/07/15 10:27:28;;;;;;;16.00;9.43;;;;;;;;;;5068600;28;20013;-56
2023/07/15 10:30:29;;;;;;;15.90;8.90;;;;;;;;;;5068814;28;20078;-58
2023/07/15 10:33:03;;;;;;;15.43;8.52;;;;;;;;;;4986957;28;20037;-57
2023/07/15 10:35:29;;;;;;;16.08;7.90;;;;;;;;;;5055463;28;20408;-55
2023/07/15 10:37:56;;;;;;;16.17;7.90;;;;;;;;;;5069003;28;20036;-55
2023/07/15 10:40:48;;;;;;;15.68;7.78;;;;;;;;;;5051054;28;20408;-53
2023/07/15 10:43:24;;;;;;;15.52;7.30;;;;;;;;;;5050656;28;20032;-53
2023/07/15 10:45:54;;;;;;;14.82;7.43;;;;;;;;;;5068226;28;20488;-55
2023/07/15 10:48:21;;;;;;;15.65;7.30;;;;;;;;;;5068803;28;20032;-53
2023/07/15 10:50:48;;;;;;;16.17;7.10;;;;;;;;;;5068862;28;20034;-56
2023/07/15 10:53:21;;;;;;;15.90;7.93;;;;;;;;;;5050703;28;20116;-55
2023/07/15 10:55:54;;;;;;;16.77;11.15;;;;;;;;;;5065513;28;20029;-54
2023/07/15 10:58:20;;;;;;;16.13;11.45;;;;;;;;;;5069039;28;20031;-57
2023/07/15 11:00:46;;;;;;;17.23;11.27;;;;;;;;;;5066332;28;20038;-56
2023/07/15 11:03:12;;;;;;;17.10;10.90;;;;;;;;;;5051091;28;20028;-57
2023/07/15 11:05:38;;;;;;;16.98;10.90;;;;;;;;;;5048542;28;20548;-51
2023/07/15 11:08:08;;;;;;;16.38;10.13;;;;;;;;;;5048241;28;20242;-57
2023/07/15 11:10:35;;;;;;;16.27;9.77;;;;;;;;;;5048756;28;20136;-56
2023/07/15 11:13:13;;;;;;;16.65;10.50;;;;;;;;;;5048553;28;20392;-51
2023/07/15 11:15:39;;;;;;;16.45;9.77;;;;;;;;;;5047905;28;20489;-55
2023/07/15 11:18:05;;;;;;;16.50;9.70;;;;;;;;;;5048954;28;20047;-55
2023/07/15 11:20:33;;;;;;;15.30;8.77;;;;;;;;;;5049860;28;20650;-55
2023/07/15 11:22:59;;;;;;;15.88;9.80;;;;;;;;;;5059632;28;20492;-54
2023/07/15 11:25:26;;;;;;;16.05;9.70;;;;;;;;;;5053070;28;20101;-56
2023/07/15 11:27:52;;;;;;;16.27;9.48;;;;;;;;;;5072330;28;20024;-55
2023/07/15 11:30:18;;;;;;;15.65;8.18;;;;;;;;;;5072187;28;20135;-56
2023/07/15 11:32:52;;;;;;;15.25;7.22;;;;;;;;;;5072461;28;20078;-56
2023/07/15 11:35:18;;;;;;;14.50;7.07;;;;;;;;;;5054125;28;20025;-51
2023/07/15 11:37:44;;;;;;;15.27;6.93;;;;;;;;;;5072193;28;20070;-54
2023/07/15 11:40:19;;;;;;;16.02;7.45;;;;;;;;;;5071956;28;20413;-53
2023/07/15 11:42:45;;;;;;;16.75;7.03;;;;;;;;;;5071583;28;20029;-57
2023/07/15 11:45:11;;;;;;;14.80;6.95;;;;;;;;;;5070766;28;20144;-59
2023/07/15 11:47:37;;;;;;;17.98;6.90;;;;;;;;;;5071889;28;20024;-52
2023/07/15 11:50:03;;;;;;;14.98;7.25;;;;;;;;;;5071414;28;20032;-54
2023/07/15 11:52:40;;;;;;;14.50;7.15;;;;;;;;;;5071025;28;20020;-52
2023/07/15 11:55:06;;;;;;;15.10;7.00;;;;;;;;;;5071044;28;20511;-52
2023/07/15 11:57:32;;;;;;;14.95;7.30;;;;;;;;;;5071187;28;20029;-53
2023/07/15 11:59:58;;;;;;;14.13;7.45;;;;;;;;;;5071192;28;20078;-53
2023/07/15 12:02:24;;;;;;;14.50;7.57;;;;;;;;;;5071859;28;20037;-52
2023/07/15 12:04:50;;;;;;;14.15;7.20;;;;;;;;;;5070001;28;20029;-54
2023/07/15 12:07:22;;;;;;;14.35;6.80;;;;;;;;;;5071271;28;20032;-55
2023/07/15 12:10:04;;;;;;;16.08;7.68;;;;;;;;;;5071073;28;20078;-52
2023/07/15 12:12:30;;;;;;;16.00;9.23;;;;;;;;;;5070610;28;20085;-56
2023/07/15 12:14:56;;;;;;;15.25;8.52;;;;;;;;;;5070186;28;20567;-52
2023/07/15 12:17:22;;;;;;;17.27;8.60;;;;;;;;;;5070678;28;20028;-57
2023/07/15 12:19:48;;;;;;;15.63;8.27;;;;;;;;;;5071177;28;20108;-56
2023/07/15 12:22:14;;;;;;;15.00;8.40;;;;;;;;;;5074796;28;20167;-52
2023/07/15 12:24:40;;;;;;;15.18;8.45;;;;;;;;;;5074046;28;20035;-51
2023/07/15 12:27:06;;;;;;;15.20;8.55;;;;;;;;;;5074867;28;20051;-58
2023/07/15 12:29:32;;;;;;;14.30;8.20;;;;;;;;;;5074722;28;20082;-54
2023/07/15 12:31:58;;;;;;;15.68;9.02;;;;;;;;;;4719492;28;9999581;-59
2023/07/15 12:34:24;;;;;;;14.57;8.98;;;;;;;;;;5070082;28;20052;-58
2023/07/15 12:36:50;;;;;;;16.80;9.20;;;;;;;;;;5071089;28;20110;-58
2023/07/15 12:39:16;;;;;;;15.48;9.05;;;;;;;;;;5070714;28;20124;-59
2023/07/15 12:41:42;;;;;;;15.10;8.80;;;;;;;;;;5070783;28;20598;-56
2023/07/15 12:44:12;;;;;;;14.65;7.90;;;;;;;;;;5069756;28;20434;-56
2023/07/15 12:46:38;;;;;;;15.35;8.68;;;;;;;;;;5070926;28;20037;-57
2023/07/15 12:49:04;;;;;;;15.63;8.82;;;;;;;;;;5070787;28;20058;-54
2023/07/15 12:51:30;;;;;;;15.02;9.18;;;;;;;;;;5070500;28;20036;-57
2023/07/15 12:53:56;;;;;;;15.20;9.50;;;;;;;;;;5064337;28;20079;-58
2023/07/15 12:56:22;;;;;;;16.05;9.48;;;;;;;;;;5065602;28;20028;-52
2023/07/15 12:58:48;;;;;;;15.40;9.38;;;;;;;;;;5069555;28;20354;-57
2023/07/15 13:01:14;;;;;;;15.80;9.27;;;;;;;;;;5070534;28;20036;-58
2023/07/15 13:03:40;;;;;;;15.23;9.60;;;;;;;;;;5070531;28;20028;-58
2023/07/15 13:06:06;;;;;;;14.63;9.35;;;;;;;;;;5069747;28;20029;-58
2023/07/15 13:08:32;;;;;;;15.13;9.00;;;;;;;;;;5069868;28;20637;-56
2023/07/15 13:10:58;;;;;;;15.15;8.52;;;;;;;;;;5070110;28;20099;-52
2023/07/15 13:13:24;;;;;;;14.43;8.48;;;;;;;;;;5070212;28;20125;-52
2023/07/15 13:15:50;;;;;;;14.20;8.27;;;;;;;;;;5051701;28;20036;-52
2023/07/15 13:18:16;;;;;;;15.13;8.32;;;;;;;;;;5071097;28;20020;-50
2023/07/15 13:20:42;;;;;;;14.82;8.02;;;;;;;;;;5072117;28;20028;-55
2023/07/15 13:23:09;;;;;;;14.15;7.95;;;;;;;;;;5073254;28;20031;-57
2023/07/15 13:25:35;;;;;;;14.63;7.90;;;;;;;;;;5072262;28;20028;-53
2023/07/15 13:28:01;;;;;;;14.05;8.07;;;;;;;;;;5073157;28;20111;-54
2023/07/15 13:30:27;;;;;;;14.98;8.40;;;;;;;;;;5073372;28;20093;-55
2023/07/15 13:32:53;;;;;;;14.48;8.43;;;;;;;;;;5073227;28;20028;-52
2023/07/15 13:35:19;;;;;;;15.50;8.18;;;;;;;;;;5072518;28;20097;-53
2023/07/15 13:37:45;;;;;;;16.60;8.60;;;;;;;;;;5072961;28;20029;-54
2023/07/15 13:40:11;;;;;;;14.43;8.50;;;;;;;;;;5073241;28;20040;-56
2023/07/15 13:42:37;;;;;;;14.82;8.88;;;;;;;;;;5055074;28;20021;-56
2023/07/15 13:45:03;;;;;;;16.67;9.45;;;;;;;;;;5054347;28;20028;-55
2023/07/15 13:47:29;;;;;;;15.35;9.02;;;;;;;;;;5072950;28;20025;-56
2023/07/15 13:49:56;;;;;;;14.82;9.60;;;;;;;;;;5072638;28;20039;-57
2023/07/15 13:52:22;;;;;;;16.10;9.23;;;;;;;;;;5073135;28;20025;-56
2023/07/15 13:54:48;;;;;;;14.93;9.30;;;;;;;;;;4719004;28;9999731;-56
2023/07/15 13:57:14;;;;;;;16.98;9.15;;;;;;;;;;5069672;28;20025;-57
2023/07/15 13:59:40;;;;;;;15.02;9.05;;;;;;;;;;5069744;28;20086;-55
2023/07/15 14:02:06;;;;;;;16.88;8.70;;;;;;;;;;5051724;28;20052;-53
2023/07/15 14:04:32;;;;;;;14.50;9.07;;;;;;;;;;5068808;28;20038;-57
2023/07/15 14:06:58;;;;;;;14.88;9.60;;;;;;;;;;5050872;28;20021;-55
2023/07/15 14:09:24;;;;;;;16.23;9.15;;;;;;;;;;5069342;28;20036;-57
2023/07/15 14:11:50;;;;;;;15.95;9.90;;;;;;;;;;5069520;28;20024;-55
2023/07/15 14:14:17;;;;;;;15.27;10.10;;;;;;;;;;5069132;28;20036;-55
2023/07/15 14:16:43;;;;;;;14.82;9.82;;;;;;;;;;5069513;28;20078;-57
2023/07/15 14:19:09;;;;;;;15.55;9.95;;;;;;;;;;4702903;28;10000366;-57